sensor_id;sensor_type;location;lat;lon;timestamp;P1;durP1;ratioP1;P2;durP2;ratioP2
11935;SDS011;6027;48.576;9.180;2023-03-23T00:01:12;2.95;;;2.30;;
11935;SDS011;6027;48.576;9.180;2023-03-23T00:03:40;2.10;;;1.67;;
11935;SDS011;6027;48.576;9.180;2023-03-23T00:06:06;3.15;;;2.53;;
11935;SDS011;6027;48.576;9.180;2023-03-23T00:08:36;4.85;;;3.97;;
11935;SDS011;6027;48.576;9.180;2023-03-23T00:11:11;4.10;;;3.35;;
11935;SDS011;6027;48.576;9.180;2023-03-23T00:13:41;4.85;;;2.67;;
11935;SDS011;6027;48.576;9.180;2023-03-23T00:16:08;3.92;;;3.05;;
11935;SDS011;6027;48.576;9.180;2023-03-23T00:18:49;3.55;;;2.20;;
11935;SDS011;6027;48.576;9.180;2023-03-23T00:21:19;3.00;;;1.88;;
11935;SDS011;6027;48.576;9.180;2023-03-23T00:23:45;4.68;;;1.77;;
11935;SDS011;6027;48.576;9.180;2023-03-23T00:26:11;2.25;;;1.63;;
11935;SDS011;6027;48.576;9.180;2023-03-23T00:28:37;3.25;;;1.80;;
11935;SDS011;6027;48.576;9.180;2023-03-23T00:31:05;2.58;;;1.77;;
11935;SDS011;6027;48.576;9.180;2023-03-23T00:33:32;1.77;;;1.50;;
11935;SDS011;6027;48.576;9.180;2023-03-23T00:36:12;1.65;;;1.50;;
11935;SDS011;6027;48.576;9.180;2023-03-23T00:38:39;3.22;;;2.83;;
11935;SDS011;6027;48.576;9.180;2023-03-23T00:41:06;8.48;;;7.78;;
11935;SDS011;6027;48.576;9.180;2023-03-23T00:43:33;5.53;;;4.40;;
11935;SDS011;6027;48.576;9.180;2023-03-23T00:46:01;2.33;;;1.92;;
11935;SDS011;6027;48.576;9.180;2023-03-23T00:48:27;2.42;;;1.73;;
11935;SDS011;6027;48.576;9.180;2023-03-23T00:50:54;2.42;;;2.10;;
11935;SDS011;6027;48.576;9.180;2023-03-23T00:53:21;1.60;;;1.42;;
11935;SDS011;6027;48.576;9.180;2023-03-23T00:55:47;2.72;;;1.85;;
11935;SDS011;6027;48.576;9.180;2023-03-23T00:58:14;1.90;;;1.60;;
11935;SDS011;6027;48.576;9.180;2023-03-23T01:00:41;4.25;;;1.60;;
11935;SDS011;6027;48.576;9.180;2023-03-23T01:03:06;2.95;;;1.35;;
11935;SDS011;6027;48.576;9.180;2023-03-23T01:05:37;3.75;;;1.40;;
11935;SDS011;6027;48.576;9.180;2023-03-23T01:08:05;2.03;;;1.50;;
11935;SDS011;6027;48.576;9.180;2023-03-23T01:10:31;3.60;;;1.63;;
11935;SDS011;6027;48.576;9.180;2023-03-23T01:12:58;3.17;;;1.70;;
11935;SDS011;6027;48.576;9.180;2023-03-23T01:15:26;4.60;;;1.52;;
11935;SDS011;6027;48.576;9.180;2023-03-23T01:17:52;3.38;;;1.70;;
11935;SDS011;6027;48.576;9.180;2023-03-23T01:20:17;2.28;;;1.50;;
11935;SDS011;6027;48.576;9.180;2023-03-23T01:22:42;2.17;;;1.60;;
11935;SDS011;6027;48.576;9.180;2023-03-23T01:25:08;1.65;;;1.40;;
11935;SDS011;6027;48.576;9.180;2023-03-23T01:27:36;2.50;;;1.65;;
11935;SDS011;6027;48.576;9.180;2023-03-23T01:30:02;2.70;;;1.65;;
11935;SDS011;6027;48.576;9.180;2023-03-23T01:32:28;1.50;;;1.40;;
11935;SDS011;6027;48.576;9.180;2023-03-23T01:34:54;1.50;;;1.40;;
11935;SDS011;6027;48.576;9.180;2023-03-23T01:37:19;1.80;;;1.40;;
11935;SDS011;6027;48.576;9.180;2023-03-23T01:39:45;3.08;;;1.60;;
11935;SDS011;6027;48.576;9.180;2023-03-23T01:42:11;4.15;;;1.60;;
11935;SDS011;6027;48.576;9.180;2023-03-23T01:47:02;2.45;;;1.50;;
11935;SDS011;6027;48.576;9.180;2023-03-23T01:49:33;3.17;;;1.70;;
11935;SDS011;6027;48.576;9.180;2023-03-23T01:52:04;1.50;;;1.40;;
11935;SDS011;6027;48.576;9.180;2023-03-23T01:54:33;1.63;;;1.50;;
11935;SDS011;6027;48.576;9.180;2023-03-23T01:57:07;1.45;;;1.35;;
11935;SDS011;6027;48.576;9.180;2023-03-23T01:59:36;1.67;;;1.33;;
11935;SDS011;6027;48.576;9.180;2023-03-23T02:02:02;1.75;;;1.05;;
11935;SDS011;6027;48.576;9.180;2023-03-23T02:04:29;2.50;;;1.50;;
11935;SDS011;6027;48.576;9.180;2023-03-23T02:06:56;1.65;;;1.50;;
11935;SDS011;6027;48.576;9.180;2023-03-23T02:09:24;1.55;;;1.30;;
11935;SDS011;6027;48.576;9.180;2023-03-23T02:11:50;2.63;;;1.15;;
11935;SDS011;6027;48.576;9.180;2023-03-23T02:14:18;1.65;;;1.27;;
11935;SDS011;6027;48.576;9.180;2023-03-23T02:28:11;3.50;;;1.63;;
11935;SDS011;6027;48.576;9.180;2023-03-23T02:30:59;2.65;;;1.38;;
11935;SDS011;6027;48.576;9.180;2023-03-23T02:41:16;2.53;;;1.45;;
11935;SDS011;6027;48.576;9.180;2023-03-23T02:43:45;1.77;;;1.40;;
11935;SDS011;6027;48.576;9.180;2023-03-23T02:46:12;1.50;;;1.20;;
11935;SDS011;6027;48.576;9.180;2023-03-23T02:48:39;2.58;;;1.63;;
11935;SDS011;6027;48.576;9.180;2023-03-23T02:51:06;1.30;;;1.10;;
11935;SDS011;6027;48.576;9.180;2023-03-23T02:53:36;1.77;;;1.40;;
11935;SDS011;6027;48.576;9.180;2023-03-23T02:56:06;1.63;;;1.20;;
11935;SDS011;6027;48.576;9.180;2023-03-23T02:58:34;2.85;;;1.25;;
11935;SDS011;6027;48.576;9.180;2023-03-23T03:01:10;1.35;;;1.10;;
11935;SDS011;6027;48.576;9.180;2023-03-23T03:03:59;1.20;;;1.10;;
11935;SDS011;6027;48.576;9.180;2023-03-23T03:09:31;1.63;;;1.25;;
11935;SDS011;6027;48.576;9.180;2023-03-23T03:12:24;3.22;;;1.20;;
11935;SDS011;6027;48.576;9.180;2023-03-23T03:14:59;3.33;;;1.40;;
11935;SDS011;6027;48.576;9.180;2023-03-23T03:17:30;2.08;;;1.20;;
11935;SDS011;6027;48.576;9.180;2023-03-23T03:19:57;3.53;;;1.27;;
11935;SDS011;6027;48.576;9.180;2023-03-23T03:22:31;1.48;;;1.33;;
11935;SDS011;6027;48.576;9.180;2023-03-23T03:24:58;2.20;;;1.40;;
11935;SDS011;6027;48.576;9.180;2023-03-23T03:27:25;2.42;;;1.30;;
11935;SDS011;6027;48.576;9.180;2023-03-23T03:29:53;2.90;;;1.38;;
11935;SDS011;6027;48.576;9.180;2023-03-23T03:32:26;1.77;;;1.10;;
11935;SDS011;6027;48.576;9.180;2023-03-23T03:35:00;2.65;;;1.42;;
11935;SDS011;6027;48.576;9.180;2023-03-23T03:37:26;2.67;;;1.20;;
11935;SDS011;6027;48.576;9.180;2023-03-23T03:39:52;2.25;;;1.27;;
11935;SDS011;6027;48.576;9.180;2023-03-23T03:42:17;1.27;;;1.17;;
11935;SDS011;6027;48.576;9.180;2023-03-23T03:44:43;2.17;;;1.30;;
11935;SDS011;6027;48.576;9.180;2023-03-23T03:47:08;1.48;;;1.13;;
11935;SDS011;6027;48.576;9.180;2023-03-23T03:49:34;2.40;;;1.17;;
11935;SDS011;6027;48.576;9.180;2023-03-23T03:52:00;1.90;;;1.25;;
11935;SDS011;6027;48.576;9.180;2023-03-23T03:54:25;2.80;;;1.40;;
11935;SDS011;6027;48.576;9.180;2023-03-23T03:56:51;5.45;;;3.00;;
11935;SDS011;6027;48.576;9.180;2023-03-23T03:59:17;7.57;;;4.90;;
11935;SDS011;6027;48.576;9.180;2023-03-23T04:01:42;9.00;;;6.05;;
11935;SDS011;6027;48.576;9.180;2023-03-23T04:04:07;11.63;;;10.35;;
11935;SDS011;6027;48.576;9.180;2023-03-23T04:06:33;9.75;;;7.88;;
11935;SDS011;6027;48.576;9.180;2023-03-23T04:09:01;3.58;;;2.47;;
11935;SDS011;6027;48.576;9.180;2023-03-23T04:11:31;3.38;;;2.00;;
11935;SDS011;6027;48.576;9.180;2023-03-23T04:13:57;4.30;;;2.33;;
11935;SDS011;6027;48.576;9.180;2023-03-23T04:16:22;4.80;;;2.70;;
11935;SDS011;6027;48.576;9.180;2023-03-23T04:18:48;4.25;;;2.50;;
11935;SDS011;6027;48.576;9.180;2023-03-23T04:21:14;4.78;;;2.65;;
11935;SDS011;6027;48.576;9.180;2023-03-23T04:23:41;2.70;;;2.13;;
11935;SDS011;6027;48.576;9.180;2023-03-23T04:26:06;1.92;;;1.80;;
11935;SDS011;6027;48.576;9.180;2023-03-23T04:28:32;2.65;;;2.03;;
11935;SDS011;6027;48.576;9.180;2023-03-23T04:30:59;3.78;;;2.40;;
11935;SDS011;6027;48.576;9.180;2023-03-23T04:33:25;2.63;;;2.10;;
11935;SDS011;6027;48.576;9.180;2023-03-23T04:35:53;2.95;;;2.00;;
11935;SDS011;6027;48.576;9.180;2023-03-23T04:38:20;2.88;;;2.00;;
11935;SDS011;6027;48.576;9.180;2023-03-23T04:40:48;3.05;;;2.53;;
11935;SDS011;6027;48.576;9.180;2023-03-23T04:43:16;2.92;;;2.40;;
11935;SDS011;6027;48.576;9.180;2023-03-23T04:45:46;2.78;;;2.15;;
11935;SDS011;6027;48.576;9.180;2023-03-23T04:48:17;2.28;;;2.08;;
11935;SDS011;6027;48.576;9.180;2023-03-23T04:50:44;3.20;;;2.10;;
11935;SDS011;6027;48.576;9.180;2023-03-23T04:53:10;2.13;;;1.65;;
11935;SDS011;6027;48.576;9.180;2023-03-23T04:55:36;5.35;;;1.80;;
11935;SDS011;6027;48.576;9.180;2023-03-23T04:58:02;1.50;;;1.10;;
11935;SDS011;6027;48.576;9.180;2023-03-23T05:00:29;2.33;;;1.40;;
11935;SDS011;6027;48.576;9.180;2023-03-23T05:02:54;1.63;;;1.23;;
11935;SDS011;6027;48.576;9.180;2023-03-23T05:05:20;6.43;;;4.15;;
11935;SDS011;6027;48.576;9.180;2023-03-23T05:07:48;5.72;;;3.75;;
11935;SDS011;6027;48.576;9.180;2023-03-23T05:10:15;3.88;;;2.83;;
11935;SDS011;6027;48.576;9.180;2023-03-23T05:12:41;3.47;;;2.35;;
11935;SDS011;6027;48.576;9.180;2023-03-23T05:15:08;2.80;;;1.80;;
11935;SDS011;6027;48.576;9.180;2023-03-23T05:17:36;3.13;;;2.33;;
11935;SDS011;6027;48.576;9.180;2023-03-23T05:20:02;2.15;;;1.80;;
11935;SDS011;6027;48.576;9.180;2023-03-23T05:22:30;2.60;;;2.05;;
11935;SDS011;6027;48.576;9.180;2023-03-23T05:24:59;1.90;;;1.67;;
11935;SDS011;6027;48.576;9.180;2023-03-23T05:27:27;2.35;;;1.80;;
11935;SDS011;6027;48.576;9.180;2023-03-23T05:29:55;3.72;;;1.63;;
11935;SDS011;6027;48.576;9.180;2023-03-23T05:32:23;4.43;;;1.92;;
11935;SDS011;6027;48.576;9.180;2023-03-23T05:34:54;3.70;;;1.58;;
11935;SDS011;6027;48.576;9.180;2023-03-23T05:37:21;3.25;;;1.60;;
11935;SDS011;6027;48.576;9.180;2023-03-23T05:39:47;1.65;;;1.20;;
11935;SDS011;6027;48.576;9.180;2023-03-23T05:42:13;1.30;;;1.20;;
11935;SDS011;6027;48.576;9.180;2023-03-23T05:44:38;2.58;;;1.30;;
11935;SDS011;6027;48.576;9.180;2023-03-23T05:47:04;3.67;;;1.38;;
11935;SDS011;6027;48.576;9.180;2023-03-23T05:49:30;1.52;;;1.42;;
11935;SDS011;6027;48.576;9.180;2023-03-23T05:51:55;2.47;;;1.50;;
11935;SDS011;6027;48.576;9.180;2023-03-23T05:54:21;3.47;;;1.40;;
11935;SDS011;6027;48.576;9.180;2023-03-23T05:56:46;1.83;;;1.63;;
11935;SDS011;6027;48.576;9.180;2023-03-23T05:59:14;3.70;;;1.40;;
11935;SDS011;6027;48.576;9.180;2023-03-23T06:01:39;3.80;;;1.40;;
11935;SDS011;6027;48.576;9.180;2023-03-23T06:04:05;2.42;;;1.60;;
11935;SDS011;6027;48.576;9.180;2023-03-23T06:06:30;2.47;;;1.40;;
11935;SDS011;6027;48.576;9.180;2023-03-23T06:08:57;7.38;;;4.15;;
11935;SDS011;6027;48.576;9.180;2023-03-23T06:11:23;4.40;;;1.90;;
11935;SDS011;6027;48.576;9.180;2023-03-23T06:13:50;2.85;;;1.70;;
11935;SDS011;6027;48.576;9.180;2023-03-23T06:16:16;3.13;;;1.60;;
11935;SDS011;6027;48.576;9.180;2023-03-23T06:18:41;1.52;;;1.42;;
11935;SDS011;6027;48.576;9.180;2023-03-23T06:21:08;2.20;;;1.52;;
11935;SDS011;6027;48.576;9.180;2023-03-23T06:23:35;3.45;;;1.92;;
11935;SDS011;6027;48.576;9.180;2023-03-23T06:26:01;2.72;;;1.60;;
11935;SDS011;6027;48.576;9.180;2023-03-23T06:28:30;2.00;;;1.65;;
11935;SDS011;6027;48.576;9.180;2023-03-23T06:30:58;1.67;;;1.20;;
11935;SDS011;6027;48.576;9.180;2023-03-23T06:35:57;4.90;;;1.75;;
11935;SDS011;6027;48.576;9.180;2023-03-23T06:38:23;4.25;;;1.88;;
11935;SDS011;6027;48.576;9.180;2023-03-23T06:40:51;3.42;;;2.10;;
11935;SDS011;6027;48.576;9.180;2023-03-23T06:43:27;2.58;;;1.33;;
11935;SDS011;6027;48.576;9.180;2023-03-23T06:45:52;2.75;;;1.40;;
11935;SDS011;6027;48.576;9.180;2023-03-23T06:48:17;4.50;;;1.45;;
11935;SDS011;6027;48.576;9.180;2023-03-23T06:50:43;1.75;;;1.33;;
11935;SDS011;6027;48.576;9.180;2023-03-23T06:53:09;1.77;;;1.30;;
11935;SDS011;6027;48.576;9.180;2023-03-23T06:55:36;3.53;;;1.38;;
11935;SDS011;6027;48.576;9.180;2023-03-23T06:58:03;2.05;;;1.40;;
11935;SDS011;6027;48.576;9.180;2023-03-23T07:00:30;2.70;;;1.20;;
11935;SDS011;6027;48.576;9.180;2023-03-23T07:02:56;2.00;;;1.05;;
11935;SDS011;6027;48.576;9.180;2023-03-23T07:05:22;1.95;;;1.13;;
11935;SDS011;6027;48.576;9.180;2023-03-23T07:07:48;2.83;;;1.17;;
11935;SDS011;6027;48.576;9.180;2023-03-23T07:10:13;1.23;;;1.10;;
11935;SDS011;6027;48.576;9.180;2023-03-23T07:12:40;1.83;;;1.05;;
11935;SDS011;6027;48.576;9.180;2023-03-23T07:15:07;1.83;;;1.20;;
11935;SDS011;6027;48.576;9.180;2023-03-23T07:17:35;2.42;;;1.20;;
11935;SDS011;6027;48.576;9.180;2023-03-23T07:20:00;3.25;;;1.15;;
11935;SDS011;6027;48.576;9.180;2023-03-23T07:22:27;2.90;;;1.45;;
11935;SDS011;6027;48.576;9.180;2023-03-23T07:24:52;1.48;;;1.15;;
11935;SDS011;6027;48.576;9.180;2023-03-23T07:27:18;1.42;;;1.20;;
11935;SDS011;6027;48.576;9.180;2023-03-23T07:29:44;1.60;;;1.15;;
11935;SDS011;6027;48.576;9.180;2023-03-23T07:32:10;1.27;;;1.02;;
11935;SDS011;6027;48.576;9.180;2023-03-23T07:34:37;1.40;;;1.00;;
11935;SDS011;6027;48.576;9.180;2023-03-23T07:37:03;3.00;;;1.42;;
11935;SDS011;6027;48.576;9.180;2023-03-23T07:39:28;1.95;;;1.33;;
11935;SDS011;6027;48.576;9.180;2023-03-23T07:41:54;2.13;;;1.42;;
11935;SDS011;6027;48.576;9.180;2023-03-23T07:44:20;1.90;;;1.30;;
11935;SDS011;6027;48.576;9.180;2023-03-23T07:46:46;1.42;;;1.10;;
11935;SDS011;6027;48.576;9.180;2023-03-23T07:49:12;3.50;;;1.60;;
11935;SDS011;6027;48.576;9.180;2023-03-23T07:51:37;3.88;;;1.25;;
11935;SDS011;6027;48.576;9.180;2023-03-23T07:54:06;1.38;;;1.10;;
11935;SDS011;6027;48.576;9.180;2023-03-23T07:56:35;1.55;;;1.45;;
11935;SDS011;6027;48.576;9.180;2023-03-23T07:59:02;3.10;;;1.42;;
11935;SDS011;6027;48.576;9.180;2023-03-23T08:01:29;1.83;;;1.30;;
11935;SDS011;6027;48.576;9.180;2023-03-23T08:03:56;2.38;;;1.40;;
11935;SDS011;6027;48.576;9.180;2023-03-23T08:06:23;1.63;;;1.30;;
11935;SDS011;6027;48.576;9.180;2023-03-23T08:08:49;2.25;;;1.80;;
11935;SDS011;6027;48.576;9.180;2023-03-23T08:11:15;3.03;;;1.42;;
11935;SDS011;6027;48.576;9.180;2023-03-23T08:13:41;1.73;;;1.42;;
11935;SDS011;6027;48.576;9.180;2023-03-23T08:16:08;4.13;;;1.50;;
11935;SDS011;6027;48.576;9.180;2023-03-23T08:18:34;3.88;;;1.38;;
11935;SDS011;6027;48.576;9.180;2023-03-23T08:21:01;2.42;;;1.50;;
11935;SDS011;6027;48.576;9.180;2023-03-23T08:23:29;7.90;;;1.60;;
11935;SDS011;6027;48.576;9.180;2023-03-23T08:25:56;3.38;;;1.40;;
11935;SDS011;6027;48.576;9.180;2023-03-23T08:28:21;1.67;;;1.42;;
11935;SDS011;6027;48.576;9.180;2023-03-23T08:30:47;3.53;;;1.40;;
11935;SDS011;6027;48.576;9.180;2023-03-23T08:33:13;1.75;;;1.30;;
11935;SDS011;6027;48.576;9.180;2023-03-23T08:35:39;1.35;;;1.23;;
11935;SDS011;6027;48.576;9.180;2023-03-23T08:38:05;1.73;;;1.45;;
11935;SDS011;6027;48.576;9.180;2023-03-23T08:40:31;1.63;;;1.13;;
11935;SDS011;6027;48.576;9.180;2023-03-23T08:42:57;2.08;;;1.30;;
11935;SDS011;6027;48.576;9.180;2023-03-23T08:45:24;2.28;;;1.40;;
11935;SDS011;6027;48.576;9.180;2023-03-23T08:47:50;2.10;;;1.33;;
11935;SDS011;6027;48.576;9.180;2023-03-23T08:50:21;3.15;;;1.50;;
11935;SDS011;6027;48.576;9.180;2023-03-23T08:52:49;2.33;;;1.20;;
11935;SDS011;6027;48.576;9.180;2023-03-23T08:55:16;3.20;;;1.73;;
11935;SDS011;6027;48.576;9.180;2023-03-23T08:57:42;2.55;;;1.55;;
11935;SDS011;6027;48.576;9.180;2023-03-23T09:00:10;3.33;;;1.40;;
11935;SDS011;6027;48.576;9.180;2023-03-23T09:02:42;2.03;;;1.38;;
11935;SDS011;6027;48.576;9.180;2023-03-23T09:05:09;1.63;;;1.45;;
11935;SDS011;6027;48.576;9.180;2023-03-23T09:07:36;1.85;;;1.48;;
11935;SDS011;6027;48.576;9.180;2023-03-23T09:10:03;1.65;;;1.50;;
11935;SDS011;6027;48.576;9.180;2023-03-23T09:12:29;1.33;;;1.23;;
11935;SDS011;6027;48.576;9.180;2023-03-23T09:14:55;2.30;;;1.50;;
11935;SDS011;6027;48.576;9.180;2023-03-23T09:17:20;2.65;;;1.55;;
11935;SDS011;6027;48.576;9.180;2023-03-23T09:19:46;2.10;;;1.20;;
11935;SDS011;6027;48.576;9.180;2023-03-23T09:22:11;2.50;;;1.30;;
11935;SDS011;6027;48.576;9.180;2023-03-23T09:24:36;2.20;;;1.55;;
11935;SDS011;6027;48.576;9.180;2023-03-23T09:27:02;2.47;;;1.52;;
11935;SDS011;6027;48.576;9.180;2023-03-23T09:29:28;1.67;;;1.10;;
11935;SDS011;6027;48.576;9.180;2023-03-23T09:31:54;1.23;;;1.13;;
11935;SDS011;6027;48.576;9.180;2023-03-23T09:34:21;1.60;;;1.38;;
11935;SDS011;6027;48.576;9.180;2023-03-23T09:36:47;1.70;;;1.35;;
11935;SDS011;6027;48.576;9.180;2023-03-23T09:39:13;1.83;;;1.48;;
11935;SDS011;6027;48.576;9.180;2023-03-23T09:45:09;3.53;;;1.35;;
11935;SDS011;6027;48.576;9.180;2023-03-23T09:50:17;2.63;;;1.60;;
11935;SDS011;6027;48.576;9.180;2023-03-23T09:52:51;1.58;;;1.15;;
11935;SDS011;6027;48.576;9.180;2023-03-23T09:55:23;1.83;;;1.02;;
11935;SDS011;6027;48.576;9.180;2023-03-23T10:06:58;1.75;;;1.17;;
11935;SDS011;6027;48.576;9.180;2023-03-23T10:12:00;1.15;;;1.05;;
11935;SDS011;6027;48.576;9.180;2023-03-23T10:19:49;2.15;;;1.30;;
11935;SDS011;6027;48.576;9.180;2023-03-23T10:22:24;1.50;;;1.20;;
11935;SDS011;6027;48.576;9.180;2023-03-23T10:36:12;1.90;;;1.00;;
11935;SDS011;6027;48.576;9.180;2023-03-23T10:41:46;1.52;;;1.15;;
11935;SDS011;6027;48.576;9.180;2023-03-23T10:44:19;2.65;;;1.25;;
11935;SDS011;6027;48.576;9.180;2023-03-23T10:46:56;1.20;;;1.10;;
11935;SDS011;6027;48.576;9.180;2023-03-23T10:50:12;1.55;;;1.10;;
11935;SDS011;6027;48.576;9.180;2023-03-23T10:54:56;1.42;;;1.20;;
11935;SDS011;6027;48.576;9.180;2023-03-23T10:57:27;1.48;;;1.13;;
11935;SDS011;6027;48.576;9.180;2023-03-23T10:59:59;1.13;;;1.02;;
11935;SDS011;6027;48.576;9.180;2023-03-23T11:02:31;1.40;;;1.05;;
11935;SDS011;6027;48.576;9.180;2023-03-23T11:05:03;1.35;;;1.10;;
11935;SDS011;6027;48.576;9.180;2023-03-23T11:07:33;2.08;;;1.40;;
11935;SDS011;6027;48.576;9.180;2023-03-23T11:10:06;1.38;;;1.10;;
11935;SDS011;6027;48.576;9.180;2023-03-23T11:12:43;1.70;;;1.10;;
11935;SDS011;6027;48.576;9.180;2023-03-23T11:15:16;2.38;;;1.00;;
11935;SDS011;6027;48.576;9.180;2023-03-23T11:17:58;2.45;;;1.20;;
11935;SDS011;6027;48.576;9.180;2023-03-23T11:20:26;1.15;;;1.05;;
11935;SDS011;6027;48.576;9.180;2023-03-23T11:22:54;1.67;;;1.25;;
11935;SDS011;6027;48.576;9.180;2023-03-23T11:25:21;2.67;;;1.17;;
11935;SDS011;6027;48.576;9.180;2023-03-23T11:27:46;2.63;;;1.20;;
11935;SDS011;6027;48.576;9.180;2023-03-23T11:30:20;1.35;;;1.25;;
11935;SDS011;6027;48.576;9.180;2023-03-23T11:32:49;2.30;;;1.10;;
11935;SDS011;6027;48.576;9.180;2023-03-23T11:35:19;1.30;;;1.13;;
11935;SDS011;6027;48.576;9.180;2023-03-23T11:37:51;1.17;;;1.00;;
11935;SDS011;6027;48.576;9.180;2023-03-23T11:40:23;2.30;;;1.20;;
11935;SDS011;6027;48.576;9.180;2023-03-23T11:43:01;2.10;;;1.10;;
11935;SDS011;6027;48.576;9.180;2023-03-23T11:45:35;2.50;;;1.30;;
11935;SDS011;6027;48.576;9.180;2023-03-23T11:50:53;1.52;;;1.20;;
11935;SDS011;6027;48.576;9.180;2023-03-23T11:58:55;2.15;;;1.33;;
11935;SDS011;6027;48.576;9.180;2023-03-23T12:09:22;1.52;;;1.30;;
11935;SDS011;6027;48.576;9.180;2023-03-23T12:11:55;1.30;;;1.20;;
11935;SDS011;6027;48.576;9.180;2023-03-23T12:17:44;1.45;;;1.20;;
11935;SDS011;6027;48.576;9.180;2023-03-23T12:26:52;1.45;;;1.17;;
11935;SDS011;6027;48.576;9.180;2023-03-23T12:32:05;1.35;;;1.25;;
11935;SDS011;6027;48.576;9.180;2023-03-23T12:34:39;2.17;;;1.15;;
11935;SDS011;6027;48.576;9.180;2023-03-23T12:48:12;4.78;;;3.65;;
11935;SDS011;6027;48.576;9.180;2023-03-23T12:50:43;1.55;;;1.35;;
11935;SDS011;6027;48.576;9.180;2023-03-23T12:53:30;2.03;;;1.00;;
11935;SDS011;6027;48.576;9.180;2023-03-23T13:02:10;1.98;;;1.05;;
11935;SDS011;6027;48.576;9.180;2023-03-23T13:04:45;3.03;;;1.20;;
11935;SDS011;6027;48.576;9.180;2023-03-23T13:07:23;1.75;;;1.27;;
11935;SDS011;6027;48.576;9.180;2023-03-23T13:12:45;1.75;;;1.23;;
11935;SDS011;6027;48.576;9.180;2023-03-23T13:15:18;1.25;;;1.10;;
11935;SDS011;6027;48.576;9.180;2023-03-23T13:23:44;1.48;;;1.30;;
11935;SDS011;6027;48.576;9.180;2023-03-23T13:26:19;1.52;;;1.27;;
11935;SDS011;6027;48.576;9.180;2023-03-23T13:31:23;1.73;;;1.20;;
11935;SDS011;6027;48.576;9.180;2023-03-23T13:33:52;2.30;;;1.80;;
11935;SDS011;6027;48.576;9.180;2023-03-23T13:36:56;1.88;;;1.40;;
11935;SDS011;6027;48.576;9.180;2023-03-23T13:39:34;1.60;;;1.42;;
11935;SDS011;6027;48.576;9.180;2023-03-23T13:49:53;1.95;;;1.45;;
11935;SDS011;6027;48.576;9.180;2023-03-23T14:08:21;2.10;;;1.17;;
11935;SDS011;6027;48.576;9.180;2023-03-23T14:10:54;1.83;;;1.45;;
11935;SDS011;6027;48.576;9.180;2023-03-23T14:13:32;3.10;;;1.30;;
11935;SDS011;6027;48.576;9.180;2023-03-23T14:16:12;1.92;;;1.50;;
11935;SDS011;6027;48.576;9.180;2023-03-23T14:18:41;2.03;;;1.60;;
11935;SDS011;6027;48.576;9.180;2023-03-23T14:21:16;2.15;;;1.15;;
11935;SDS011;6027;48.576;9.180;2023-03-23T14:23:46;3.60;;;1.38;;
11935;SDS011;6027;48.576;9.180;2023-03-23T14:26:12;2.30;;;1.50;;
11935;SDS011;6027;48.576;9.180;2023-03-23T14:28:42;2.45;;;1.58;;
11935;SDS011;6027;48.576;9.180;2023-03-23T14:31:14;3.13;;;1.40;;
11935;SDS011;6027;48.576;9.180;2023-03-23T14:33:41;2.08;;;1.58;;
11935;SDS011;6027;48.576;9.180;2023-03-23T14:36:07;1.40;;;1.30;;
11935;SDS011;6027;48.576;9.180;2023-03-23T14:38:32;3.78;;;1.30;;
11935;SDS011;6027;48.576;9.180;2023-03-23T14:41:02;2.47;;;1.70;;
11935;SDS011;6027;48.576;9.180;2023-03-23T14:43:29;4.72;;;1.65;;
11935;SDS011;6027;48.576;9.180;2023-03-23T14:46:00;1.38;;;1.10;;
11935;SDS011;6027;48.576;9.180;2023-03-23T14:48:27;1.60;;;1.40;;
11935;SDS011;6027;48.576;9.180;2023-03-23T14:50:57;1.50;;;1.40;;
11935;SDS011;6027;48.576;9.180;2023-03-23T14:56:08;2.28;;;1.50;;
11935;SDS011;6027;48.576;9.180;2023-03-23T14:58:36;1.85;;;1.50;;
11935;SDS011;6027;48.576;9.180;2023-03-23T15:01:05;2.20;;;1.60;;
11935;SDS011;6027;48.576;9.180;2023-03-23T15:03:36;3.60;;;1.50;;
11935;SDS011;6027;48.576;9.180;2023-03-23T15:06:14;2.42;;;1.40;;
11935;SDS011;6027;48.576;9.180;2023-03-23T15:08:42;1.95;;;1.33;;
11935;SDS011;6027;48.576;9.180;2023-03-23T15:13:49;2.13;;;1.45;;
11935;SDS011;6027;48.576;9.180;2023-03-23T15:16:26;2.40;;;1.30;;
11935;SDS011;6027;48.576;9.180;2023-03-23T15:21:22;4.20;;;1.30;;
11935;SDS011;6027;48.576;9.180;2023-03-23T15:23:54;2.80;;;1.75;;
11935;SDS011;6027;48.576;9.180;2023-03-23T15:26:30;2.05;;;1.45;;
11935;SDS011;6027;48.576;9.180;2023-03-23T15:29:02;3.30;;;1.80;;
11935;SDS011;6027;48.576;9.180;2023-03-23T15:31:39;3.22;;;1.60;;
11935;SDS011;6027;48.576;9.180;2023-03-23T15:34:10;1.85;;;1.38;;
11935;SDS011;6027;48.576;9.180;2023-03-23T15:36:40;1.83;;;1.38;;
11935;SDS011;6027;48.576;9.180;2023-03-23T15:39:06;5.72;;;1.80;;
11935;SDS011;6027;48.576;9.180;2023-03-23T15:41:44;3.88;;;1.55;;
11935;SDS011;6027;48.576;9.180;2023-03-23T15:44:12;2.03;;;1.52;;
11935;SDS011;6027;48.576;9.180;2023-03-23T15:46:47;1.95;;;1.48;;
11935;SDS011;6027;48.576;9.180;2023-03-23T15:49:15;1.48;;;1.27;;
11935;SDS011;6027;48.576;9.180;2023-03-23T15:51:41;1.35;;;1.25;;
11935;SDS011;6027;48.576;9.180;2023-03-23T15:54:08;1.90;;;1.70;;
11935;SDS011;6027;48.576;9.180;2023-03-23T15:56:37;1.75;;;1.48;;
11935;SDS011;6027;48.576;9.180;2023-03-23T15:59:03;2.83;;;1.48;;
11935;SDS011;6027;48.576;9.180;2023-03-23T16:01:28;3.83;;;1.50;;
11935;SDS011;6027;48.576;9.180;2023-03-23T16:03:59;1.73;;;1.42;;
11935;SDS011;6027;48.576;9.180;2023-03-23T16:06:30;1.60;;;1.38;;
11935;SDS011;6027;48.576;9.180;2023-03-23T16:08:57;2.80;;;1.70;;
11935;SDS011;6027;48.576;9.180;2023-03-23T16:11:24;2.15;;;1.60;;
11935;SDS011;6027;48.576;9.180;2023-03-23T16:13:52;2.50;;;1.75;;
11935;SDS011;6027;48.576;9.180;2023-03-23T16:16:20;1.40;;;1.30;;
11935;SDS011;6027;48.576;9.180;2023-03-23T16:19:07;2.28;;;1.58;;
11935;SDS011;6027;48.576;9.180;2023-03-23T16:21:36;1.50;;;1.30;;
11935;SDS011;6027;48.576;9.180;2023-03-23T16:24:02;4.28;;;1.48;;
11935;SDS011;6027;48.576;9.180;2023-03-23T16:26:27;2.70;;;1.40;;
11935;SDS011;6027;48.576;9.180;2023-03-23T16:28:53;1.65;;;1.27;;
11935;SDS011;6027;48.576;9.180;2023-03-23T16:31:18;1.88;;;1.35;;
11935;SDS011;6027;48.576;9.180;2023-03-23T16:33:44;3.80;;;1.42;;
11935;SDS011;6027;48.576;9.180;2023-03-23T16:36:13;2.05;;;1.50;;
11935;SDS011;6027;48.576;9.180;2023-03-23T16:38:56;2.30;;;1.52;;
11935;SDS011;6027;48.576;9.180;2023-03-23T16:41:32;2.00;;;1.50;;
11935;SDS011;6027;48.576;9.180;2023-03-23T16:43:58;4.10;;;1.77;;
11935;SDS011;6027;48.576;9.180;2023-03-23T16:46:23;2.22;;;2.00;;
11935;SDS011;6027;48.576;9.180;2023-03-23T16:48:49;2.38;;;1.70;;
11935;SDS011;6027;48.576;9.180;2023-03-23T16:51:14;1.67;;;1.50;;
11935;SDS011;6027;48.576;9.180;2023-03-23T16:53:40;2.08;;;1.40;;
11935;SDS011;6027;48.576;9.180;2023-03-23T16:56:06;2.40;;;1.60;;
11935;SDS011;6027;48.576;9.180;2023-03-23T16:58:31;2.90;;;1.70;;
11935;SDS011;6027;48.576;9.180;2023-03-23T17:00:57;2.42;;;1.65;;
11935;SDS011;6027;48.576;9.180;2023-03-23T17:03:22;2.03;;;1.60;;
11935;SDS011;6027;48.576;9.180;2023-03-23T17:05:48;2.20;;;1.65;;
11935;SDS011;6027;48.576;9.180;2023-03-23T17:08:15;4.63;;;1.88;;
11935;SDS011;6027;48.576;9.180;2023-03-23T17:10:41;1.52;;;1.30;;
11935;SDS011;6027;48.576;9.180;2023-03-23T17:13:08;2.47;;;1.60;;
11935;SDS011;6027;48.576;9.180;2023-03-23T17:15:37;3.22;;;1.50;;
11935;SDS011;6027;48.576;9.180;2023-03-23T17:20:31;2.90;;;1.60;;
11935;SDS011;6027;48.576;9.180;2023-03-23T17:22:59;3.17;;;1.75;;
11935;SDS011;6027;48.576;9.180;2023-03-23T17:25:25;2.15;;;1.58;;
11935;SDS011;6027;48.576;9.180;2023-03-23T17:27:52;3.92;;;1.80;;
11935;SDS011;6027;48.576;9.180;2023-03-23T17:30:17;2.35;;;1.70;;
11935;SDS011;6027;48.576;9.180;2023-03-23T17:32:43;3.25;;;2.75;;
11935;SDS011;6027;48.576;9.180;2023-03-23T17:35:11;6.55;;;5.13;;
11935;SDS011;6027;48.576;9.180;2023-03-23T17:37:36;4.93;;;4.30;;
11935;SDS011;6027;48.576;9.180;2023-03-23T17:40:02;6.85;;;5.53;;
11935;SDS011;6027;48.576;9.180;2023-03-23T17:42:28;6.60;;;4.72;;
11935;SDS011;6027;48.576;9.180;2023-03-23T17:44:54;3.95;;;3.50;;
11935;SDS011;6027;48.576;9.180;2023-03-23T17:47:19;3.85;;;2.58;;